Heat Index [SAI AWOS/ASOS Display]_________FAA Disclaimer: "Not for use in aviation at this time______________" Untitled Document
Indianapolis Executive Airport IN
360
17:12
18/02/21
11
N/A
N/A
30.48
N/A
922
35(F), 2(C)
33(F), 1(C)
27 F
93%
BKN011 OVC014
10
Light Rain
N/A
N/A
17:12 zulu Wind 360 at 11 Knots, Altimeter 30.48
METAR KTYQ 211712Z AUTO 36011KT 10SM -RA BKN011 OVC014 02/01 A3048 A02
METAR:
FAA Disclaimer--Advisory Use ONLY, not for flight info-- 2/21/2009: Airport FBO 317-769-3288... New URL for smartphones... http://www.saiawos2.com/TYQ
INFO:
Wind Direction:
Wind Speed:
Wind Gust:
Wind Variable:
Altimeter:
Dens Alt:
Elev:
Temp:
Dwpt:
Wind Chill
Rel Humidity:
Ceiling:
Visibility:
Prsnt Wea:
PCPN:
Remarks:
How to read the WebPage